KPMH/PMH METAR and TAF weather

Enter ICAO airport designator
Station Type Date Time Source
KPMH METAR 2022/01/26 20:15 UTC NOAA

KPMH 262015Z AUTO 00000KT 10SM CLR M04/M17 A3044 RMK AO2 T10431166


Station Type Date Time Source
KPMH Decoded METAR 2022/01/26 20:15 UTC NOAA

Station name not available
Jan 26, 2022 - 03:15 PM EST / 2022.01.26 2015 UTC
Wind: Calm:0
Visibility: 10 mile(s):0
Sky conditions: clear
Temperature: 24.3 F (-4.3 C)
Dew Point: 2.1 F (-16.6 C)
Relative Humidity: 37%
Pressure (altimeter): 30.44 in. Hg (1030 hPa)
ob: KPMH 262015Z AUTO 00000KT 10SM CLR M04/M17 A3044 RMK AO2 T10431166
cycle: 20

Station Type Date Time Source
KPMH TAF UTC NOAA

Error!

Example: see airport list